Time;durP1;ratioP1;P1;durP2;ratioP2;P2;SDS_P1;SDS_P2;PMS_P1;PMS_P2;Temp;Humidity;BMP_temperature;BMP_pressure;BME280_temperature;BME280_humidity;BME280_pressure;Samples;Min_cycle;Max_cycle;Signal;HPM_P1;HPM_P2
2022/03/07 00:01:50;;;;;;;43.50;23.92;;;;;;;;;;5071824;28;20471;-80
2022/03/07 00:04:17;;;;;;;42.20;23.10;;;;;;;;;;5069966;28;20040;-80
2022/03/07 00:06:44;;;;;;;45.17;25.27;;;;;;;;;;5068801;28;20051;-80
2022/03/07 00:09:10;;;;;;;50.47;26.13;;;;;;;;;;5064743;28;20569;-80
2022/03/07 00:11:36;;;;;;;48.60;28.27;;;;;;;;;;5072108;28;20028;-80
2022/03/07 00:14:02;;;;;;;48.80;26.45;;;;;;;;;;5071742;28;20062;-80
2022/03/07 00:16:29;;;;;;;44.00;26.00;;;;;;;;;;5070277;28;20055;-80
2022/03/07 00:18:55;;;;;;;48.70;26.60;;;;;;;;;;5059366;28;20067;-80
2022/03/07 00:21:21;;;;;;;56.55;30.38;;;;;;;;;;5051959;28;20029;-80
2022/03/07 00:23:47;;;;;;;51.60;27.80;;;;;;;;;;5068434;28;20033;-80
2022/03/07 00:26:14;;;;;;;48.28;25.67;;;;;;;;;;5071727;28;20025;-80
2022/03/07 00:28:40;;;;;;;47.28;26.40;;;;;;;;;;5071039;28;20092;-80
2022/03/07 00:31:06;;;;;;;50.50;26.33;;;;;;;;;;5051857;28;20029;-80
2022/03/07 00:33:32;;;;;;;44.97;23.80;;;;;;;;;;5051173;28;20045;-79
2022/03/07 00:35:58;;;;;;;44.50;24.05;;;;;;;;;;5064439;28;20032;-80
2022/03/07 00:38:25;;;;;;;44.50;24.27;;;;;;;;;;5059238;28;20460;-80
2022/03/07 00:40:51;;;;;;;38.55;22.35;;;;;;;;;;5071101;28;20029;-80
2022/03/07 00:43:18;;;;;;;45.28;22.42;;;;;;;;;;5071248;28;20056;-80
2022/03/07 00:45:44;;;;;;;41.35;21.63;;;;;;;;;;5055520;28;20032;-80
2022/03/07 00:48:11;;;;;;;39.53;20.17;;;;;;;;;;5051031;28;20041;-80
2022/03/07 00:50:42;;;;;;;38.92;21.40;;;;;;;;;;5067841;28;20033;-80
2022/03/07 00:53:08;;;;;;;34.83;19.63;;;;;;;;;;5071353;28;20040;-80
2022/03/07 00:55:34;;;;;;;36.00;20.17;;;;;;;;;;5069861;28;20427;-80
2022/03/07 00:58:00;;;;;;;37.38;21.10;;;;;;;;;;5051419;28;20159;-80
2022/03/07 01:00:26;;;;;;;42.60;21.90;;;;;;;;;;5068244;28;20073;-80
2022/03/07 01:02:52;;;;;;;39.35;20.98;;;;;;;;;;5070691;28;20040;-80
2022/03/07 01:05:19;;;;;;;37.88;20.85;;;;;;;;;;5063148;28;20036;-79
2022/03/07 01:07:45;;;;;;;39.40;21.80;;;;;;;;;;5071002;28;20032;-80
2022/03/07 01:10:11;;;;;;;38.30;21.70;;;;;;;;;;5067237;28;20051;-80
2022/03/07 01:12:37;;;;;;;36.88;20.48;;;;;;;;;;5070755;28;20534;-80
2022/03/07 01:15:04;;;;;;;37.95;22.25;;;;;;;;;;5069962;28;20025;-80
2022/03/07 01:17:30;;;;;;;35.17;20.55;;;;;;;;;;5070395;28;20064;-80
2022/03/07 01:19:56;;;;;;;35.33;20.65;;;;;;;;;;5070573;28;20066;-80
2022/03/07 01:22:22;;;;;;;43.10;24.65;;;;;;;;;;5070036;28;20064;-80
2022/03/07 01:24:48;;;;;;;43.28;23.25;;;;;;;;;;5070648;28;20360;-80
2022/03/07 01:27:14;;;;;;;39.97;21.75;;;;;;;;;;5060128;28;20029;-80
2022/03/07 01:29:40;;;;;;;49.63;26.05;;;;;;;;;;5050618;28;20505;-80
2022/03/07 01:32:06;;;;;;;44.40;23.85;;;;;;;;;;5063090;28;20120;-80
2022/03/07 01:34:33;;;;;;;47.58;26.35;;;;;;;;;;5055201;28;20746;-80
2022/03/07 01:36:59;;;;;;;43.97;24.15;;;;;;;;;;5066417;28;20033;-80
2022/03/07 01:39:25;;;;;;;46.70;23.70;;;;;;;;;;5070515;28;20112;-80
2022/03/07 01:41:51;;;;;;;41.53;23.42;;;;;;;;;;5070142;28;20506;-80
2022/03/07 01:44:21;;;;;;;41.03;23.42;;;;;;;;;;5070366;28;20044;-80
2022/03/07 01:46:47;;;;;;;44.97;22.05;;;;;;;;;;5069577;28;20036;-80
2022/03/07 01:49:14;;;;;;;43.17;23.10;;;;;;;;;;5058524;28;20435;-80
2022/03/07 01:51:43;;;;;;;46.17;24.88;;;;;;;;;;5052823;28;20032;-80
2022/03/07 01:54:11;;;;;;;46.47;24.45;;;;;;;;;;5070103;28;20044;-80
2022/03/07 01:56:37;;;;;;;42.40;23.00;;;;;;;;;;5051329;28;20032;-80
2022/03/07 01:59:04;;;;;;;42.90;23.85;;;;;;;;;;5068941;28;20037;-80
2022/03/07 02:01:31;;;;;;;45.17;25.23;;;;;;;;;;5069928;28;20059;-80
2022/03/07 02:03:57;;;;;;;50.00;25.08;;;;;;;;;;5064979;28;20655;-80
2022/03/07 02:06:23;;;;;;;53.75;27.08;;;;;;;;;;5065233;28;20477;-80
2022/03/07 02:08:51;;;;;;;54.38;28.45;;;;;;;;;;5068863;28;20429;-80
2022/03/07 02:11:17;;;;;;;59.05;28.55;;;;;;;;;;5069656;28;20407;-79
2022/03/07 02:13:43;;;;;;;50.63;27.38;;;;;;;;;;5069470;28;20043;-80
2022/03/07 02:16:11;;;;;;;43.97;22.85;;;;;;;;;;5068919;28;20032;-80
2022/03/07 02:18:37;;;;;;;44.85;22.33;;;;;;;;;;5060913;28;20576;-80
2022/03/07 02:21:17;;;;;;;39.72;21.63;;;;;;;;;;5069771;28;20051;-80
2022/03/07 02:23:44;;;;;;;37.63;21.08;;;;;;;;;;5069857;28;20078;-80
2022/03/07 02:26:10;;;;;;;37.75;19.65;;;;;;;;;;5068393;28;20032;-80
2022/03/07 02:28:37;;;;;;;34.33;20.17;;;;;;;;;;5060941;28;20037;-80
2022/03/07 02:31:03;;;;;;;35.90;20.30;;;;;;;;;;5049686;28;20033;-80
2022/03/07 02:33:29;;;;;;;37.55;21.63;;;;;;;;;;5055222;28;20028;-80
2022/03/07 02:35:56;;;;;;;38.60;22.25;;;;;;;;;;5069813;28;20572;-80
2022/03/07 02:38:22;;;;;;;35.92;20.20;;;;;;;;;;5064334;28;20021;-80
2022/03/07 02:40:48;;;;;;;37.47;21.80;;;;;;;;;;5069751;28;20028;-81
2022/03/07 02:43:15;;;;;;;38.13;21.13;;;;;;;;;;5051697;28;20053;-80
2022/03/07 02:45:41;;;;;;;39.63;21.75;;;;;;;;;;5069032;28;20083;-80
2022/03/07 02:48:07;;;;;;;37.78;19.88;;;;;;;;;;5054749;28;20036;-80
2022/03/07 02:50:33;;;;;;;37.03;20.73;;;;;;;;;;5064098;28;20040;-80
2022/03/07 02:52:59;;;;;;;38.30;19.60;;;;;;;;;;5052126;28;20044;-80
2022/03/07 02:55:25;;;;;;;36.20;19.20;;;;;;;;;;5067791;28;20067;-80
2022/03/07 02:57:52;;;;;;;34.17;18.67;;;;;;;;;;5068804;28;20081;-80
2022/03/07 03:00:18;;;;;;;38.20;19.95;;;;;;;;;;5064386;28;20112;-80
2022/03/07 03:02:44;;;;;;;33.30;18.42;;;;;;;;;;5052876;28;20043;-80
2022/03/07 03:05:10;;;;;;;38.03;21.38;;;;;;;;;;5066583;28;20068;-80
2022/03/07 03:07:36;;;;;;;37.45;21.20;;;;;;;;;;5050013;28;20052;-80
2022/03/07 03:10:03;;;;;;;37.55;19.95;;;;;;;;;;5054036;28;20033;-80
2022/03/07 03:12:29;;;;;;;36.90;20.23;;;;;;;;;;5048974;28;20048;-80
2022/03/07 03:14:55;;;;;;;35.20;19.98;;;;;;;;;;5061813;28;20562;-80
2022/03/07 03:17:21;;;;;;;34.90;20.13;;;;;;;;;;5064060;28;20044;-81
2022/03/07 03:19:47;;;;;;;35.70;19.73;;;;;;;;;;5063099;28;20158;-80
2022/03/07 03:22:13;;;;;;;36.50;20.27;;;;;;;;;;5072907;28;20039;-80
2022/03/07 03:24:39;;;;;;;36.40;20.02;;;;;;;;;;5068483;28;20102;-80
2022/03/07 03:27:05;;;;;;;33.53;19.10;;;;;;;;;;5073171;28;20036;-80
2022/03/07 03:29:31;;;;;;;35.28;19.70;;;;;;;;;;5067143;28;20503;-80
2022/03/07 03:31:58;;;;;;;35.47;19.85;;;;;;;;;;5071487;28;20038;-80
2022/03/07 03:34:25;;;;;;;38.63;20.52;;;;;;;;;;5069490;28;20033;-80
2022/03/07 03:36:51;;;;;;;34.22;19.77;;;;;;;;;;5052824;28;20024;-80
2022/03/07 03:39:17;;;;;;;34.55;19.15;;;;;;;;;;5052359;28;20089;-79
2022/03/07 03:41:43;;;;;;;34.33;18.45;;;;;;;;;;5067951;28;20112;-80
2022/03/07 03:44:09;;;;;;;38.17;21.73;;;;;;;;;;5067879;28;20690;-80
2022/03/07 03:46:37;;;;;;;38.03;20.95;;;;;;;;;;5072009;28;20035;-80
2022/03/07 03:49:03;;;;;;;36.60;20.05;;;;;;;;;;5072355;28;20127;-80
2022/03/07 03:51:29;;;;;;;42.05;21.42;;;;;;;;;;5072127;28;20028;-80
2022/03/07 03:53:55;;;;;;;38.25;20.42;;;;;;;;;;5072465;28;20508;-80
2022/03/07 03:56:22;;;;;;;44.30;21.30;;;;;;;;;;5071803;28;20047;-80
2022/03/07 03:58:48;;;;;;;42.28;22.85;;;;;;;;;;5067537;28;20033;-80
2022/03/07 04:01:14;;;;;;;44.15;21.90;;;;;;;;;;5061466;28;20028;-80
2022/03/07 04:03:40;;;;;;;34.47;18.58;;;;;;;;;;5072103;28;20859;-80
2022/03/07 04:06:08;;;;;;;36.33;20.63;;;;;;;;;;5070281;28;20372;-79
2022/03/07 04:08:37;;;;;;;35.05;19.83;;;;;;;;;;5072416;28;20135;-80
2022/03/07 04:11:03;;;;;;;36.67;19.63;;;;;;;;;;5056537;28;20545;-80
2022/03/07 04:13:29;;;;;;;40.20;20.25;;;;;;;;;;5072021;28;20059;-80
2022/03/07 04:15:55;;;;;;;46.13;22.55;;;;;;;;;;5060335;28;20025;-80
2022/03/07 04:18:21;;;;;;;44.50;21.73;;;;;;;;;;5071885;28;20075;-80
2022/03/07 04:20:47;;;;;;;38.38;21.67;;;;;;;;;;5071728;28;20079;-80
2022/03/07 04:23:15;;;;;;;42.88;21.23;;;;;;;;;;5071652;28;20047;-80
2022/03/07 04:25:41;;;;;;;39.38;21.27;;;;;;;;;;5070203;28;20032;-80
2022/03/07 04:28:07;;;;;;;47.10;21.77;;;;;;;;;;5060033;28;20090;-80
2022/03/07 04:30:33;;;;;;;46.28;23.58;;;;;;;;;;5055715;28;20040;-79
2022/03/07 04:33:00;;;;;;;41.83;21.83;;;;;;;;;;5066174;28;20078;-80
2022/03/07 04:35:26;;;;;;;41.30;21.30;;;;;;;;;;5071804;28;20025;-80
2022/03/07 04:37:52;;;;;;;48.22;22.25;;;;;;;;;;5067186;28;20161;-80
2022/03/07 04:40:18;;;;;;;40.38;20.92;;;;;;;;;;5066195;28;20562;-80
2022/03/07 04:42:44;;;;;;;37.53;20.77;;;;;;;;;;5064159;28;20033;-80
2022/03/07 04:45:11;;;;;;;42.30;22.83;;;;;;;;;;5071113;28;20107;-80
2022/03/07 04:47:37;;;;;;;40.08;21.33;;;;;;;;;;5052518;28;20025;-80
2022/03/07 04:50:04;;;;;;;37.75;21.58;;;;;;;;;;5066297;28;20071;-81
2022/03/07 04:52:30;;;;;;;43.85;21.40;;;;;;;;;;5055218;28;20036;-80
2022/03/07 04:54:56;;;;;;;43.40;22.90;;;;;;;;;;5071260;28;20387;-79
2022/03/07 04:57:22;;;;;;;43.67;22.27;;;;;;;;;;5068990;28;20024;-80
2022/03/07 04:59:48;;;;;;;40.65;21.05;;;;;;;;;;5071055;28;20037;-80
2022/03/07 05:02:14;;;;;;;39.47;20.90;;;;;;;;;;5070717;28;20649;-80
2022/03/07 05:04:40;;;;;;;41.10;22.92;;;;;;;;;;5069643;28;20069;-79
2022/03/07 05:07:07;;;;;;;51.20;25.48;;;;;;;;;;5070319;28;20028;-80
2022/03/07 05:09:33;;;;;;;43.80;23.42;;;;;;;;;;5070836;28;20561;-80
2022/03/07 05:11:59;;;;;;;41.17;22.67;;;;;;;;;;5063687;28;20021;-80
2022/03/07 05:14:26;;;;;;;42.00;22.95;;;;;;;;;;5051217;28;20525;-80
2022/03/07 05:16:52;;;;;;;38.20;21.50;;;;;;;;;;5060921;28;20028;-80
2022/03/07 05:19:18;;;;;;;39.92;21.70;;;;;;;;;;5050351;28;20063;-80
2022/03/07 05:21:44;;;;;;;37.30;21.83;;;;;;;;;;5061871;28;20577;-79
2022/03/07 05:24:10;;;;;;;39.35;21.50;;;;;;;;;;5050738;28;20045;-80
2022/03/07 05:26:36;;;;;;;37.30;20.63;;;;;;;;;;5051195;28;20025;-80
2022/03/07 05:29:03;;;;;;;40.97;21.05;;;;;;;;;;5067197;28;20383;-80
2022/03/07 05:31:29;;;;;;;37.97;21.38;;;;;;;;;;5070380;28;20150;-80
2022/03/07 05:33:55;;;;;;;40.55;21.77;;;;;;;;;;5070597;28;20036;-80
2022/03/07 05:36:21;;;;;;;43.17;21.55;;;;;;;;;;5053387;28;20064;-80
2022/03/07 05:38:47;;;;;;;41.35;21.77;;;;;;;;;;5064752;28;20060;-80
2022/03/07 05:41:14;;;;;;;43.78;23.00;;;;;;;;;;5058314;28;20103;-80
2022/03/07 05:43:40;;;;;;;44.50;21.92;;;;;;;;;;5069454;28;20095;-80
2022/03/07 05:46:07;;;;;;;43.20;22.58;;;;;;;;;;5070510;28;20022;-80
2022/03/07 05:48:33;;;;;;;40.22;20.80;;;;;;;;;;5063187;28;20040;-79
2022/03/07 05:50:59;;;;;;;40.63;20.63;;;;;;;;;;5068913;28;20032;-80
2022/03/07 05:53:25;;;;;;;41.35;21.77;;;;;;;;;;5069740;28;20043;-80
2022/03/07 05:55:51;;;;;;;42.42;21.30;;;;;;;;;;5070207;28;20387;-79
2022/03/07 05:58:17;;;;;;;40.65;21.38;;;;;;;;;;5069452;28;20154;-80
2022/03/07 06:00:43;;;;;;;41.60;20.67;;;;;;;;;;5065221;28;20116;-80
2022/03/07 06:03:11;;;;;;;43.50;21.50;;;;;;;;;;5049793;28;20044;-79
2022/03/07 06:05:37;;;;;;;39.75;21.77;;;;;;;;;;5061064;28;20148;-80
2022/03/07 06:08:04;;;;;;;44.05;22.45;;;;;;;;;;5066522;28;20139;-80
2022/03/07 06:10:30;;;;;;;40.17;21.75;;;;;;;;;;5049545;28;20033;-80
2022/03/07 06:12:56;;;;;;;43.80;22.50;;;;;;;;;;5068320;28;20067;-79
2022/03/07 06:15:22;;;;;;;41.55;21.00;;;;;;;;;;5065842;28;20407;-80
2022/03/07 06:17:56;;;;;;;45.45;22.65;;;;;;;;;;5061319;28;20036;-80
2022/03/07 06:20:23;;;;;;;49.15;22.77;;;;;;;;;;5062455;28;20546;-80
2022/03/07 06:22:49;;;;;;;47.88;24.10;;;;;;;;;;5059617;28;20616;-80
2022/03/07 06:25:15;;;;;;;46.88;24.40;;;;;;;;;;5057283;28;20036;-80
2022/03/07 06:27:41;;;;;;;50.03;24.92;;;;;;;;;;5069055;28;20036;-80
2022/03/07 06:30:08;;;;;;;43.17;22.88;;;;;;;;;;5066217;28;20052;-80
2022/03/07 06:32:35;;;;;;;50.58;25.55;;;;;;;;;;5061246;28;20044;-81
2022/03/07 06:35:01;;;;;;;51.03;26.00;;;;;;;;;;5062427;28;20020;-80
2022/03/07 06:37:27;;;;;;;57.45;25.90;;;;;;;;;;5064974;28;20044;-79
2022/03/07 06:39:53;;;;;;;59.13;25.27;;;;;;;;;;5083830;28;20029;-80
2022/03/07 06:42:19;;;;;;;55.95;26.15;;;;;;;;;;5059096;28;20041;-80
2022/03/07 06:44:45;;;;;;;62.17;26.90;;;;;;;;;;5055913;28;20523;-77
2022/03/07 06:47:11;;;;;;;52.08;28.48;;;;;;;;;;5066500;28;20041;-80
2022/03/07 06:49:39;;;;;;;56.05;26.40;;;;;;;;;;5067033;28;20025;-72
2022/03/07 06:52:05;;;;;;;52.40;26.58;;;;;;;;;;5068842;28;20086;-71
2022/03/07 06:54:31;;;;;;;55.13;30.42;;;;;;;;;;5059739;28;20032;-71
2022/03/07 06:56:57;;;;;;;57.03;28.60;;;;;;;;;;5063831;28;20082;-71
2022/03/07 06:59:23;;;;;;;54.58;26.40;;;;;;;;;;5058387;28;20677;-71
2022/03/07 07:01:51;;;;;;;52.35;28.00;;;;;;;;;;5061015;28;20062;-71
2022/03/07 07:04:17;;;;;;;68.38;31.42;;;;;;;;;;5060027;28;20025;-71
2022/03/07 07:06:43;;;;;;;60.85;30.27;;;;;;;;;;5055591;28;20040;-71
2022/03/07 07:09:09;;;;;;;56.53;28.20;;;;;;;;;;5055083;28;20037;-71
2022/03/07 07:11:36;;;;;;;54.83;28.40;;;;;;;;;;5052425;28;20032;-71
2022/03/07 07:14:02;;;;;;;63.67;31.38;;;;;;;;;;5053721;28;20128;-71
2022/03/07 07:16:28;;;;;;;62.17;29.48;;;;;;;;;;5062880;28;20037;-71
2022/03/07 07:18:54;;;;;;;60.92;30.95;;;;;;;;;;5063929;28;20143;-71
2022/03/07 07:21:20;;;;;;;63.13;30.20;;;;;;;;;;5058948;28;20036;-71
2022/03/07 07:23:46;;;;;;;61.40;33.55;;;;;;;;;;5064121;28;20056;-71
2022/03/07 07:26:12;;;;;;;69.43;37.70;;;;;;;;;;5057755;28;20471;-71
2022/03/07 07:28:38;;;;;;;69.18;36.70;;;;;;;;;;5060510;28;20632;-71
2022/03/07 07:31:04;;;;;;;70.47;34.00;;;;;;;;;;5060524;28;20044;-71
2022/03/07 07:33:30;;;;;;;67.07;34.28;;;;;;;;;;5056071;28;20060;-71
2022/03/07 07:35:56;;;;;;;56.70;33.47;;;;;;;;;;5060873;28;20492;-71
2022/03/07 07:38:22;;;;;;;56.58;31.10;;;;;;;;;;5054867;28;20029;-71
2022/03/07 07:40:49;;;;;;;55.00;30.45;;;;;;;;;;5059520;28;20434;-71
2022/03/07 07:43:15;;;;;;;59.08;32.35;;;;;;;;;;5053319;28;20064;-71
2022/03/07 07:45:41;;;;;;;60.80;35.10;;;;;;;;;;5055252;28;20033;-71
2022/03/07 07:48:07;;;;;;;63.08;32.65;;;;;;;;;;5057475;28;20509;-71
2022/03/07 07:50:33;;;;;;;59.70;29.67;;;;;;;;;;5054565;28;20589;-71
2022/03/07 07:53:00;;;;;;;62.30;32.50;;;;;;;;;;5061858;28;20055;-71
2022/03/07 07:55:26;;;;;;;54.40;29.27;;;;;;;;;;5066512;28;20681;-71
2022/03/07 07:57:52;;;;;;;60.78;32.28;;;;;;;;;;5055791;28;20032;-71
2022/03/07 08:00:21;;;;;;;53.90;30.00;;;;;;;;;;5056719;28;20040;-71
2022/03/07 08:02:48;;;;;;;48.40;26.33;;;;;;;;;;5056687;28;20035;-71
2022/03/07 08:05:14;;;;;;;49.53;27.08;;;;;;;;;;5069354;28;20036;-71
2022/03/07 08:07:41;;;;;;;41.88;25.40;;;;;;;;;;5058366;28;20360;-71
2022/03/07 08:10:08;;;;;;;42.55;24.80;;;;;;;;;;5059522;28;20448;-72
2022/03/07 08:12:34;;;;;;;41.58;22.98;;;;;;;;;;5062606;28;20029;-71
2022/03/07 08:15:00;;;;;;;48.40;26.45;;;;;;;;;;5058286;28;20033;-71
2022/03/07 08:17:26;;;;;;;50.53;27.25;;;;;;;;;;5056523;28;20045;-72
2022/03/07 08:19:52;;;;;;;50.25;29.48;;;;;;;;;;5058563;28;20098;-72
2022/03/07 08:22:18;;;;;;;46.88;26.02;;;;;;;;;;5055294;28;20032;-71
2022/03/07 08:24:44;;;;;;;52.95;28.52;;;;;;;;;;5061499;28;20037;-72
2022/03/07 08:27:10;;;;;;;50.22;26.92;;;;;;;;;;5052934;28;20033;-71
2022/03/07 08:29:36;;;;;;;57.85;30.75;;;;;;;;;;5056615;28;20063;-71
2022/03/07 08:32:02;;;;;;;57.30;30.85;;;;;;;;;;5059515;28;20041;-71
2022/03/07 08:34:28;;;;;;;50.92;28.42;;;;;;;;;;5065222;28;20110;-72
2022/03/07 08:36:54;;;;;;;44.80;25.25;;;;;;;;;;5060829;28;20024;-71
2022/03/07 08:39:20;;;;;;;42.97;25.75;;;;;;;;;;5063517;28;20040;-71
2022/03/07 08:41:46;;;;;;;45.45;24.63;;;;;;;;;;5064609;28;20020;-71
2022/03/07 08:44:12;;;;;;;46.75;26.23;;;;;;;;;;5060250;28;20057;-71
2022/03/07 08:46:39;;;;;;;42.10;25.05;;;;;;;;;;5057826;28;20072;-71
2022/03/07 08:49:05;;;;;;;43.20;26.75;;;;;;;;;;5072191;28;20029;-71
2022/03/07 08:51:31;;;;;;;38.72;24.25;;;;;;;;;;5058943;28;20103;-71
2022/03/07 08:53:57;;;;;;;50.67;25.58;;;;;;;;;;5062034;28;20463;-71
2022/03/07 08:56:23;;;;;;;48.20;29.95;;;;;;;;;;5062007;28;20509;-71
2022/03/07 08:58:49;;;;;;;50.22;31.48;;;;;;;;;;5063503;28;20103;-71
2022/03/07 09:01:18;;;;;;;48.38;30.35;;;;;;;;;;5063268;28;20033;-71
2022/03/07 09:03:45;;;;;;;41.03;26.90;;;;;;;;;;5058930;28;20048;-72
2022/03/07 09:06:11;;;;;;;43.63;25.30;;;;;;;;;;5054916;28;20044;-71
2022/03/07 09:08:37;;;;;;;45.28;22.92;;;;;;;;;;5054198;28;20041;-71
2022/03/07 09:11:03;;;;;;;43.97;26.08;;;;;;;;;;5054149;28;20119;-72
2022/03/07 09:13:29;;;;;;;42.10;26.13;;;;;;;;;;5050428;28;20060;-71
2022/03/07 09:15:55;;;;;;;41.45;24.65;;;;;;;;;;5052669;28;20106;-72
2022/03/07 09:18:22;;;;;;;40.40;24.00;;;;;;;;;;5057499;28;20124;-71
2022/03/07 09:20:48;;;;;;;38.38;24.55;;;;;;;;;;5056883;28;20060;-71
2022/03/07 09:23:14;;;;;;;40.63;24.23;;;;;;;;;;5057384;28;20108;-72
2022/03/07 09:25:40;;;;;;;39.97;23.48;;;;;;;;;;5060941;28;20072;-72
2022/03/07 09:28:06;;;;;;;48.40;26.95;;;;;;;;;;5057415;28;20037;-71
2022/03/07 09:30:32;;;;;;;44.03;25.60;;;;;;;;;;5051704;28;20032;-71
2022/03/07 09:33:03;;;;;;;40.42;25.75;;;;;;;;;;5057959;28;20048;-71
2022/03/07 09:35:29;;;;;;;43.72;26.50;;;;;;;;;;5056490;28;20116;-71
2022/03/07 09:37:55;;;;;;;45.75;23.52;;;;;;;;;;5055447;28;20040;-72
2022/03/07 09:40:21;;;;;;;39.40;24.05;;;;;;;;;;5053693;28;20114;-72
2022/03/07 09:42:47;;;;;;;40.03;22.92;;;;;;;;;;5053866;28;20084;-71
2022/03/07 09:45:13;;;;;;;35.40;23.20;;;;;;;;;;5056335;28;20055;-71
2022/03/07 09:47:40;;;;;;;40.50;22.23;;;;;;;;;;5056070;28;20037;-72
2022/03/07 09:50:08;;;;;;;37.72;21.98;;;;;;;;;;5050611;28;20086;-71
2022/03/07 09:52:35;;;;;;;39.83;26.00;;;;;;;;;;5055023;28;20112;-72
2022/03/07 09:55:01;;;;;;;40.05;24.02;;;;;;;;;;5065159;28;20028;-71
2022/03/07 09:57:27;;;;;;;45.45;24.75;;;;;;;;;;5055844;28;20060;-71
2022/03/07 09:59:53;;;;;;;40.47;23.08;;;;;;;;;;5060685;28;20493;-72
2022/03/07 10:02:24;;;;;;;33.60;22.80;;;;;;;;;;5055245;28;20032;-71
2022/03/07 10:04:50;;;;;;;41.13;24.88;;;;;;;;;;5056533;28;20040;-71
2022/03/07 10:07:16;;;;;;;39.63;23.83;;;;;;;;;;5053629;28;20037;-71
2022/03/07 10:09:43;;;;;;;38.97;25.10;;;;;;;;;;5054449;28;20025;-72
2022/03/07 10:12:09;;;;;;;41.78;25.33;;;;;;;;;;5053285;28;20083;-72
2022/03/07 10:14:44;;;;;;;35.80;22.95;;;;;;;;;;5058983;28;20123;-72
2022/03/07 10:17:17;;;;;;;35.38;23.92;;;;;;;;;;5055673;28;20099;-72
2022/03/07 10:19:44;;;;;;;36.95;23.33;;;;;;;;;;5056277;28;20029;-71
2022/03/07 10:22:13;;;;;;;39.38;24.38;;;;;;;;;;5054102;28;20024;-71
2022/03/07 10:24:39;;;;;;;36.13;24.27;;;;;;;;;;5073804;28;20447;-71
2022/03/07 10:27:05;;;;;;;35.00;23.42;;;;;;;;;;5050453;28;20033;-72
2022/03/07 10:29:31;;;;;;;41.38;24.63;;;;;;;;;;5053347;28;20043;-72
2022/03/07 10:31:58;;;;;;;39.53;23.38;;;;;;;;;;5061316;28;20032;-71
2022/03/07 10:34:26;;;;;;;35.50;24.58;;;;;;;;;;5061445;28;20040;-72
2022/03/07 10:36:53;;;;;;;36.53;24.25;;;;;;;;;;5054501;28;20021;-72
2022/03/07 10:39:23;;;;;;;36.58;23.38;;;;;;;;;;5056915;28;20029;-72
2022/03/07 10:41:49;;;;;;;40.75;26.15;;;;;;;;;;5061606;28;20021;-72
2022/03/07 10:44:26;;;;;;;38.33;23.52;;;;;;;;;;5057515;28;20135;-72
2022/03/07 10:46:53;;;;;;;35.17;23.20;;;;;;;;;;5050856;28;20060;-72
2022/03/07 10:49:19;;;;;;;37.92;26.23;;;;;;;;;;5057326;28;20067;-72
2022/03/07 10:51:54;;;;;;;38.42;25.67;;;;;;;;;;5057513;28;20078;-72
2022/03/07 10:54:21;;;;;;;37.33;24.33;;;;;;;;;;5053557;28;20376;-72
2022/03/07 10:56:51;;;;;;;39.72;25.20;;;;;;;;;;5059172;28;20043;-72
2022/03/07 10:59:28;;;;;;;34.55;21.88;;;;;;;;;;5059288;28;20838;-72
2022/03/07 11:02:01;;;;;;;41.45;24.98;;;;;;;;;;5060958;28;20047;-72
2022/03/07 11:04:27;;;;;;;38.80;25.13;;;;;;;;;;5055159;28;20036;-72
2022/03/07 11:06:54;;;;;;;38.10;24.58;;;;;;;;;;5058025;28;20094;-72
2022/03/07 11:23:45;;;;;;;39.65;24.73;;;;;;;;;;5094898;27;20432;-71
2022/03/07 11:26:11;;;;;;;34.08;24.88;;;;;;;;;;5082065;28;20041;-72
2022/03/07 11:28:37;;;;;;;38.88;27.83;;;;;;;;;;5078678;28;20045;-71
2022/03/07 11:31:03;;;;;;;38.08;24.13;;;;;;;;;;5080890;28;20031;-71
2022/03/07 11:33:34;;;;;;;35.30;22.48;;;;;;;;;;5079903;28;20024;-71
2022/03/07 11:36:01;;;;;;;35.85;24.92;;;;;;;;;;5075492;28;20032;-71
2022/03/07 11:38:31;;;;;;;35.88;23.23;;;;;;;;;;5079588;28;20024;-70
2022/03/07 11:41:03;;;;;;;42.35;25.00;;;;;;;;;;5079131;28;20792;-71
2022/03/07 11:43:30;;;;;;;34.28;22.55;;;;;;;;;;5077556;28;20112;-70
2022/03/07 11:45:57;;;;;;;37.25;24.35;;;;;;;;;;5080104;28;20032;-71
2022/03/07 11:48:23;;;;;;;34.40;23.90;;;;;;;;;;5076072;28;20031;-70
2022/03/07 11:50:49;;;;;;;36.85;25.95;;;;;;;;;;5080193;28;20032;-70
2022/03/07 11:53:16;;;;;;;36.60;24.52;;;;;;;;;;5079993;28;20036;-70
2022/03/07 11:55:43;;;;;;;31.75;22.95;;;;;;;;;;5078140;28;20028;-70
2022/03/07 11:58:09;;;;;;;38.85;26.98;;;;;;;;;;5078906;28;20111;-72
2022/03/07 12:00:36;;;;;;;39.17;25.35;;;;;;;;;;5079002;28;20107;-70
2022/03/07 12:03:10;;;;;;;32.58;22.65;;;;;;;;;;5079639;28;20862;-71
2022/03/07 12:05:36;;;;;;;36.13;24.10;;;;;;;;;;5078065;28;20032;-70
2022/03/07 12:08:15;;;;;;;35.53;22.77;;;;;;;;;;5078729;28;20540;-71
2022/03/07 12:10:59;;;;;;;29.35;20.75;;;;;;;;;;5079011;28;20043;-72
2022/03/07 12:13:25;;;;;;;34.53;23.27;;;;;;;;;;5079379;28;20032;-71
2022/03/07 12:15:53;;;;;;;35.40;23.20;;;;;;;;;;5079512;28;20406;-71
2022/03/07 12:18:19;;;;;;;34.13;23.48;;;;;;;;;;5081529;28;20032;-71
2022/03/07 12:20:46;;;;;;;35.80;22.75;;;;;;;;;;5080990;28;20103;-71
2022/03/07 12:23:12;;;;;;;33.60;21.77;;;;;;;;;;5076936;28;20152;-71
2022/03/07 12:25:38;;;;;;;37.25;22.40;;;;;;;;;;5067070;28;20033;-71
2022/03/07 12:28:05;;;;;;;32.78;22.17;;;;;;;;;;5068587;28;20091;-71
2022/03/07 12:30:31;;;;;;;38.30;24.50;;;;;;;;;;5066555;28;20135;-71
2022/03/07 12:32:57;;;;;;;31.13;20.02;;;;;;;;;;5067684;28;20045;-71
2022/03/07 12:35:23;;;;;;;33.70;20.75;;;;;;;;;;5068180;28;20074;-71
2022/03/07 12:37:49;;;;;;;34.72;22.48;;;;;;;;;;5065308;28;20040;-71
2022/03/07 12:40:16;;;;;;;32.53;22.42;;;;;;;;;;5067975;28;20418;-71
2022/03/07 12:42:42;;;;;;;32.13;22.35;;;;;;;;;;5066835;28;20040;-71
2022/03/07 12:45:09;;;;;;;36.97;21.33;;;;;;;;;;5066935;28;20036;-71
2022/03/07 12:47:39;;;;;;;33.40;22.48;;;;;;;;;;5065248;28;20032;-71
2022/03/07 12:50:07;;;;;;;29.73;20.88;;;;;;;;;;5066082;28;20074;-71
2022/03/07 12:52:34;;;;;;;35.28;20.20;;;;;;;;;;5064222;28;20028;-71
2022/03/07 12:55:01;;;;;;;33.25;20.75;;;;;;;;;;5066851;28;20063;-71
2022/03/07 12:57:28;;;;;;;30.15;21.10;;;;;;;;;;5065917;28;20609;-71
2022/03/07 13:00:00;;;;;;;30.65;21.13;;;;;;;;;;5068143;28;20028;-71
2022/03/07 13:02:36;;;;;;;30.90;21.48;;;;;;;;;;5067110;28;20386;-71
2022/03/07 13:05:03;;;;;;;32.35;20.50;;;;;;;;;;5065594;28;20033;-71
2022/03/07 13:07:29;;;;;;;34.05;22.73;;;;;;;;;;5066386;28;20025;-71
2022/03/07 13:09:55;;;;;;;29.10;18.95;;;;;;;;;;5066265;28;20411;-71
2022/03/07 13:12:21;;;;;;;33.63;22.00;;;;;;;;;;5065677;28;20032;-72
2022/03/07 13:14:48;;;;;;;31.95;21.90;;;;;;;;;;5064181;28;20560;-71
2022/03/07 13:17:19;;;;;;;32.90;21.23;;;;;;;;;;5064108;28;20363;-71
2022/03/07 13:19:49;;;;;;;30.67;22.10;;;;;;;;;;5064674;28;20797;-72
2022/03/07 13:22:15;;;;;;;35.58;22.73;;;;;;;;;;5064447;28;20136;-71
2022/03/07 13:24:42;;;;;;;31.08;21.05;;;;;;;;;;5064468;28;20478;-71
2022/03/07 13:27:12;;;;;;;37.15;21.17;;;;;;;;;;5066351;28;20043;-71
2022/03/07 13:29:39;;;;;;;35.05;21.25;;;;;;;;;;5065413;28;20074;-71
2022/03/07 13:32:06;;;;;;;34.78;23.08;;;;;;;;;;5062880;28;20147;-71
2022/03/07 13:34:46;;;;;;;33.75;20.77;;;;;;;;;;5064133;28;20435;-71
2022/03/07 13:37:16;;;;;;;30.77;21.23;;;;;;;;;;5064154;28;20035;-71
2022/03/07 13:39:43;;;;;;;33.72;23.90;;;;;;;;;;5066751;28;20025;-71
2022/03/07 13:42:13;;;;;;;36.42;21.67;;;;;;;;;;5066261;28;20036;-71
2022/03/07 13:44:58;;;;;;;31.48;21.02;;;;;;;;;;5065652;28;20036;-71
2022/03/07 13:47:25;;;;;;;34.10;22.67;;;;;;;;;;5062193;28;20032;-72
2022/03/07 13:49:56;;;;;;;32.70;23.30;;;;;;;;;;5066741;28;20032;-71
2022/03/07 13:52:23;;;;;;;33.13;22.88;;;;;;;;;;5065788;28;20036;-71
2022/03/07 13:54:50;;;;;;;33.10;22.80;;;;;;;;;;5067279;28;20024;-71
2022/03/07 13:57:17;;;;;;;36.63;22.45;;;;;;;;;;5064297;28;20037;-72
2022/03/07 14:00:04;;;;;;;36.50;23.17;;;;;;;;;;5066357;28;20053;-72
2022/03/07 14:02:31;;;;;;;32.58;22.42;;;;;;;;;;5062490;28;20064;-72
2022/03/07 14:04:58;;;;;;;34.53;22.73;;;;;;;;;;5062498;28;20033;-71
2022/03/07 14:07:29;;;;;;;37.70;21.33;;;;;;;;;;5065610;28;20131;-71
2022/03/07 14:09:56;;;;;;;34.08;24.00;;;;;;;;;;5066163;28;20033;-71
2022/03/07 14:12:33;;;;;;;31.98;21.48;;;;;;;;;;5066203;28;20126;-71
2022/03/07 14:15:09;;;;;;;30.52;22.33;;;;;;;;;;5063672;28;20082;-72
2022/03/07 14:17:36;;;;;;;36.58;22.70;;;;;;;;;;5064097;28;20036;-71
2022/03/07 14:20:04;;;;;;;34.90;22.15;;;;;;;;;;5060994;28;20037;-71
2022/03/07 14:22:30;;;;;;;30.02;21.17;;;;;;;;;;5065267;28;20148;-71
2022/03/07 14:24:57;;;;;;;33.25;20.42;;;;;;;;;;5065417;28;20111;-71
2022/03/07 14:27:33;;;;;;;31.35;21.30;;;;;;;;;;5062389;28;20040;-71
2022/03/07 14:30:03;;;;;;;33.67;22.95;;;;;;;;;;5064190;28;20025;-71